Time;durP1;ratioP1;P1;durP2;ratioP2;P2;SDS_P1;SDS_P2;PMS_P1;PMS_P2;Temp;Humidity;BMP_temperature;BMP_pressure;BME280_temperature;BME280_humidity;BME280_pressure;Samples;Min_cycle;Max_cycle;Signal;HPM_P1;HPM_P2
2021/12/19 00:01:42;;;;;;;27.17;11.82;;;;;;;-0.12;100.00;97547.03;5078596;28;20454;-62
2021/12/19 00:04:22;;;;;;;14.15;6.82;;;;;;;-0.50;100.00;97496.28;5063388;28;20090;-63
2021/12/19 00:09:34;;;;;;;15.90;5.05;;;;;;;-0.25;99.27;97536.81;5065766;28;20631;-62
2021/12/19 00:12:01;;;;;;;12.98;4.35;;;;;;;-0.33;100.00;97551.06;5065465;28;20060;-62
2021/12/19 00:14:28;;;;;;;13.80;5.20;;;;;;;-0.70;100.00;97485.63;5066857;28;20098;-63
2021/12/19 00:16:55;;;;;;;9.40;4.00;;;;;;;-1.11;100.00;97430.84;5067397;28;20050;-62
2021/12/19 00:19:22;;;;;;;8.10;3.33;;;;;;;-0.88;100.00;97456.44;5067243;28;20064;-63
2021/12/19 00:21:49;;;;;;;12.38;5.05;;;;;;;-0.60;100.00;97516.25;5066778;28;20064;-63
2021/12/19 00:24:17;;;;;;;18.08;5.88;;;;;;;-0.57;100.00;97539.38;5065712;28;20056;-63
2021/12/19 00:26:44;;;;;;;37.08;11.52;;;;;;;-1.09;99.73;97447.66;5066496;28;20574;-62
2021/12/19 00:29:10;;;;;;;21.30;8.80;;;;;;;-0.55;98.41;97542.59;5066747;28;20506;-64
2021/12/19 00:31:37;;;;;;;15.48;6.57;;;;;;;-0.83;99.96;97540.69;5066251;28;20048;-64
2021/12/19 00:34:05;;;;;;;74.95;26.50;;;;;;;-0.84;100.00;97522.75;5064935;28;20426;-63
2021/12/19 00:36:32;;;;;;;28.13;10.02;;;;;;;-0.69;100.00;97522.59;5066673;28;20048;-62
2021/12/19 00:38:59;;;;;;;22.20;7.55;;;;;;;-0.73;100.00;97505.25;5065328;28;20052;-63
2021/12/19 00:41:26;;;;;;;22.90;11.27;;;;;;;-1.18;99.43;97456.72;5066520;28;20062;-61
2021/12/19 00:44:06;;;;;;;17.58;9.27;;;;;;;-0.77;100.00;97512.34;5066753;28;20484;-63
2021/12/19 00:46:43;;;;;;;13.38;5.47;;;;;;;-0.70;100.00;97515.56;5064910;28;20387;-62
2021/12/19 00:49:11;;;;;;;20.77;7.95;;;;;;;-0.56;99.64;97530.09;5065245;28;20044;-64
2021/12/19 00:51:38;;;;;;;26.00;10.63;;;;;;;-0.80;100.00;97497.41;5066169;28;20086;-62
2021/12/19 00:54:09;;;;;;;43.65;15.27;;;;;;;-0.67;100.00;97528.56;5066912;28;20052;-63
2021/12/19 00:56:38;;;;;;;19.58;9.52;;;;;;;-1.53;98.86;97389.13;5066996;28;20076;-62
2021/12/19 00:59:05;;;;;;;16.17;7.00;;;;;;;-0.80;98.76;97512.91;5066238;28;20129;-62
2021/12/19 01:01:33;;;;;;;16.08;7.30;;;;;;;-1.49;99.45;97434.44;5064778;28;20063;-62
2021/12/19 01:04:01;;;;;;;20.90;7.13;;;;;;;-1.45;100.00;97440.13;5066258;28;20052;-64
2021/12/19 01:06:29;;;;;;;34.15;13.57;;;;;;;-1.43;100.00;97427.06;5065707;28;20139;-61
2021/12/19 01:08:56;;;;;;;31.15;12.32;;;;;;;-0.94;100.00;97498.38;5065943;28;20060;-63
2021/12/19 01:11:23;;;;;;;23.25;11.73;;;;;;;-1.29;100.00;97438.88;5064385;28;20059;-63
2021/12/19 01:13:50;;;;;;;53.30;22.65;;;;;;;-1.16;100.00;97462.69;5065891;28;20052;-62
2021/12/19 01:16:18;;;;;;;28.52;11.90;;;;;;;-1.05;100.00;97475.09;5065647;28;20063;-62
2021/12/19 01:18:45;;;;;;;31.45;12.10;;;;;;;-1.52;100.00;97404.31;5064185;28;20963;-63
2021/12/19 01:21:13;;;;;;;22.58;9.75;;;;;;;-1.14;100.00;97490.41;5065988;28;20048;-64
2021/12/19 01:23:40;;;;;;;17.40;7.93;;;;;;;-1.05;100.00;97494.94;5066258;28;20052;-62
2021/12/19 01:26:07;;;;;;;22.10;8.23;;;;;;;-1.02;100.00;97477.22;5064252;28;20454;-62
2021/12/19 01:28:34;;;;;;;15.45;6.03;;;;;;;-1.71;100.00;97399.56;5065898;28;20048;-64
2021/12/19 01:31:01;;;;;;;7.10;3.17;;;;;;;-1.19;100.00;97482.28;5065746;28;20155;-63
2021/12/19 01:33:28;;;;;;;24.38;9.00;;;;;;;-1.47;100.00;97453.19;5063820;28;20045;-61
2021/12/19 01:35:55;;;;;;;7.32;3.50;;;;;;;-1.39;100.00;97456.09;5063871;28;20056;-63
2021/12/19 01:38:22;;;;;;;12.52;3.78;;;;;;;-1.66;99.05;97413.13;5065771;28;20048;-63
2021/12/19 01:40:48;;;;;;;10.65;4.28;;;;;;;-1.92;99.61;97459.72;5063826;28;20160;-62
2021/12/19 01:43:20;;;;;;;9.93;3.78;;;;;;;-1.33;100.00;97462.28;5065384;28;20064;-61
2021/12/19 01:45:47;;;;;;;8.32;3.65;;;;;;;-1.25;100.00;97462.50;5065383;28;20060;-61
2021/12/19 01:48:13;;;;;;;8.98;3.83;;;;;;;-1.49;98.54;97425.47;5064520;28;20056;-62
2021/12/19 01:50:41;;;;;;;10.18;4.43;;;;;;;-1.79;96.81;97404.81;5064968;28;20044;-63
2021/12/19 01:53:13;;;;;;;4.93;2.13;;;;;;;-1.69;97.69;97438.13;5064869;28;20048;-61
2021/12/19 01:55:42;;;;;;;5.60;1.95;;;;;;;-1.67;98.22;97459.56;5065186;28;20511;-63
2021/12/19 01:58:10;;;;;;;11.68;2.95;;;;;;;-1.67;99.69;97444.09;5064694;28;20052;-65
2021/12/19 02:00:41;;;;;;;14.13;3.88;;;;;;;-1.68;99.73;97437.03;5064875;28;20049;-62
2021/12/19 02:03:10;;;;;;;17.33;4.35;;;;;;;-2.11;100.00;97380.88;5063360;28;20048;-65
2021/12/19 02:05:38;;;;;;;10.52;4.60;;;;;;;-1.74;100.00;97435.44;5064718;28;20048;-64
2021/12/19 02:08:05;;;;;;;9.13;3.22;;;;;;;-1.64;100.00;97432.66;5064709;28;20614;-63
2021/12/19 02:10:33;;;;;;;13.05;4.30;;;;;;;-1.55;100.00;97441.81;5065045;28;20071;-61
2021/12/19 02:13:02;;;;;;;15.60;4.45;;;;;;;-2.02;99.36;97362.91;5065052;28;20059;-62
2021/12/19 02:15:31;;;;;;;9.40;3.25;;;;;;;-2.20;99.14;97374.44;5064520;28;20063;-63
2021/12/19 02:18:01;;;;;;;9.75;3.33;;;;;;;-1.82;99.45;97436.03;5064339;28;20347;-64
2021/12/19 02:20:41;;;;;;;17.80;5.60;;;;;;;-1.92;98.73;97408.97;5062849;28;20109;-65
2021/12/19 02:23:09;;;;;;;18.60;6.03;;;;;;;-1.89;100.00;97413.84;5064152;28;20063;-62
2021/12/19 02:25:38;;;;;;;21.60;6.35;;;;;;;-1.69;100.00;97461.75;5063137;28;20057;-62
2021/12/19 02:28:05;;;;;;;11.88;4.03;;;;;;;-1.81;100.00;97424.09;5064639;28;20583;-62
2021/12/19 02:30:32;;;;;;;9.38;4.53;;;;;;;-1.77;100.00;97417.00;5063693;28;20049;-64
2021/12/19 02:33:00;;;;;;;15.40;6.22;;;;;;;-2.09;100.00;97386.84;5062349;28;20053;-62
2021/12/19 02:35:31;;;;;;;14.77;5.22;;;;;;;-1.76;100.00;97413.22;5063083;28;20045;-62
2021/12/19 02:48:48;;;;;;;10.02;3.67;;;;;;;-2.25;100.00;97317.50;5064498;28;20041;-63
2021/12/19 02:51:15;;;;;;;12.57;4.50;;;;;;;-2.28;100.00;97328.91;5062894;28;20055;-61
2021/12/19 02:53:43;;;;;;;17.35;6.10;;;;;;;-1.86;100.00;97385.31;5063750;28;20063;-64
2021/12/19 02:56:12;;;;;;;14.95;5.82;;;;;;;-1.87;100.00;97376.38;5064252;28;20056;-62
2021/12/19 02:58:42;;;;;;;9.80;4.22;;;;;;;-1.85;100.00;97382.31;5064257;28;20056;-65
2021/12/19 03:01:14;;;;;;;11.15;4.38;;;;;;;-2.08;100.00;97358.59;5063958;28;20067;-61
2021/12/19 03:03:41;;;;;;;8.75;3.63;;;;;;;-2.31;100.00;97344.94;5063593;28;20056;-66
2021/12/19 03:06:08;;;;;;;7.80;3.30;;;;;;;-2.15;98.55;97360.81;5063503;28;20071;-64
2021/12/19 03:08:40;;;;;;;10.38;3.58;;;;;;;-1.97;97.48;97383.75;5062373;28;20057;-62
2021/12/19 03:19:23;;;;;;;12.25;4.28;;;;;;;-2.53;98.89;97334.47;5064448;28;20060;-64
2021/12/19 03:21:50;;;;;;;5.60;2.75;;;;;;;-2.37;97.74;97363.13;5062243;28;20059;-63
2021/12/19 03:24:17;;;;;;;5.05;2.03;;;;;;;-2.25;96.55;97381.78;5064084;28;20059;-65
2021/12/19 03:26:44;;;;;;;5.53;2.60;;;;;;;-2.28;96.90;97377.75;5063294;28;20071;-63
2021/12/19 03:29:10;;;;;;;7.53;3.38;;;;;;;-2.86;96.63;97313.50;5061978;28;20048;-65
2021/12/19 03:31:37;;;;;;;5.65;2.33;;;;;;;-2.48;98.66;97383.25;5063552;28;20052;-65
2021/12/19 03:34:04;;;;;;;5.78;2.22;;;;;;;-2.43;99.13;97369.69;5063868;28;20463;-61
2021/12/19 03:36:31;;;;;;;9.05;3.55;;;;;;;-2.52;98.74;97340.72;5063967;28;20044;-63
2021/12/19 03:39:02;;;;;;;11.57;3.70;;;;;;;-2.49;99.22;97359.94;5062510;28;20055;-62
2021/12/19 03:41:34;;;;;;;11.35;4.40;;;;;;;-2.88;99.50;97301.34;5063675;28;20056;-65
2021/12/19 03:44:03;;;;;;;9.98;4.05;;;;;;;-2.38;98.24;97360.69;5066920;28;20060;-65
2021/12/19 03:46:30;;;;;;;6.80;2.88;;;;;;;-2.34;98.47;97368.00;5067818;28;20052;-66
2021/12/19 03:48:57;;;;;;;7.22;3.67;;;;;;;-2.38;98.25;97366.94;5066306;28;20059;-67
2021/12/19 03:51:24;;;;;;;10.48;4.63;;;;;;;-2.81;98.69;97313.47;5067661;28;20059;-65
2021/12/19 03:53:51;;;;;;;9.07;3.63;;;;;;;-2.34;98.41;97359.84;5067037;28;20074;-62
2021/12/19 03:56:18;;;;;;;10.95;4.40;;;;;;;-2.42;96.99;97359.66;5067464;28;20048;-66
2021/12/19 03:58:44;;;;;;;8.48;3.70;;;;;;;-2.42;96.28;97359.66;5066229;28;20048;-62
2021/12/19 04:01:12;;;;;;;12.30;4.53;;;;;;;-2.49;96.10;97349.09;5067348;28;20048;-62
2021/12/19 04:03:40;;;;;;;20.13;7.03;;;;;;;-3.03;96.24;97277.03;5067106;28;20459;-66
2021/12/19 04:06:07;;;;;;;11.48;4.57;;;;;;;-2.95;97.44;97312.47;5066625;28;20056;-67
2021/12/19 04:08:33;;;;;;;8.45;3.33;;;;;;;-2.65;97.83;97344.84;5066767;28;20428;-65
2021/12/19 04:11:01;;;;;;;11.85;5.18;;;;;;;-2.59;98.79;97354.56;5065792;28;20052;-66
2021/12/19 04:13:27;;;;;;;4.18;1.83;;;;;;;-3.92;100.00;97267.00;5067154;28;20507;-62
2021/12/19 04:15:54;;;;;;;5.20;2.53;;;;;;;-3.25;100.00;97355.91;5065539;28;20045;-63
2021/12/19 04:18:21;;;;;;;4.88;2.20;;;;;;;-3.09;100.00;97346.66;5067286;28;20055;-68
2021/12/19 04:20:48;;;;;;;8.35;2.85;;;;;;;-2.98;100.00;97342.00;5066489;28;20052;-62
2021/12/19 04:23:15;;;;;;;13.93;5.65;;;;;;;-2.93;100.00;97348.25;5066694;28;20068;-67
2021/12/19 04:25:42;;;;;;;13.60;5.43;;;;;;;-3.47;100.00;97260.69;5066336;28;20048;-67
2021/12/19 04:28:09;;;;;;;10.73;5.78;;;;;;;-3.08;100.00;97291.38;5066230;28;20056;-67
2021/12/19 04:30:36;;;;;;;37.20;14.35;;;;;;;-3.05;100.00;97290.84;5065281;28;20071;-64
2021/12/19 04:33:07;;;;;;;34.70;15.57;;;;;;;-2.65;100.00;97336.72;5066511;28;20049;-62
2021/12/19 04:35:36;;;;;;;32.33;12.10;;;;;;;-2.94;100.00;97276.16;5066471;28;20067;-66
2021/12/19 04:51:54;;;;;;;9.70;4.03;;;;;;;-2.78;98.26;97312.94;5087035;28;20056;-63
2021/12/19 05:02:51;;;;;;;10.80;4.05;;;;;;;-3.26;97.64;97286.59;5086136;28;20048;-67
2021/12/19 05:15:51;;;;;;;10.93;3.75;;;;;;;-3.64;95.56;97179.00;5082139;28;20541;-64
2021/12/19 05:18:21;;;;;;;9.07;3.17;;;;;;;-2.92;95.65;97311.13;5084621;28;20051;-65
2021/12/19 05:20:55;;;;;;;14.18;4.40;;;;;;;-2.99;95.12;97278.91;5085987;28;20523;-62
2021/12/19 05:26:01;;;;;;;13.68;4.88;;;;;;;-3.13;95.85;97280.59;5086146;28;20489;-65
2021/12/19 05:28:27;;;;;;;14.90;6.38;;;;;;;-5.05;96.00;97006.41;5086020;28;20058;-63
2021/12/19 05:30:54;;;;;;;30.17;10.93;;;;;;;-2.90;96.13;97309.75;5085353;28;20055;-65
2021/12/19 05:33:21;;;;;;;31.50;13.43;;;;;;;-3.02;95.88;97279.47;5085921;28;20060;-62
2021/12/19 05:36:17;;;;;;;50.10;20.67;;;;;;;-2.90;96.64;97304.31;5082190;28;20066;-63
2021/12/19 05:46:58;;;;;;;76.47;31.73;;;;;;;-4.37;97.01;97098.63;5065363;28;20442;-64
2021/12/19 05:49:25;;;;;;;55.63;23.95;;;;;;;-3.41;97.63;97210.84;5063458;28;20527;-62
2021/12/19 05:51:52;;;;;;;47.75;22.85;;;;;;;-3.13;98.33;97286.03;5063486;28;20063;-63
2021/12/19 05:54:19;;;;;;;59.42;19.83;;;;;;;-3.79;98.01;97170.94;5065230;28;20148;-65
2021/12/19 05:56:46;;;;;;;45.58;19.48;;;;;;;-3.00;98.32;97282.69;5064630;28;20048;-63
2021/12/19 05:59:13;;;;;;;37.28;17.80;;;;;;;-2.76;97.21;97302.63;5063313;28;20620;-63
2021/12/19 06:01:42;;;;;;;33.15;15.98;;;;;;;-3.18;96.67;97238.06;5064713;28;20058;-63
2021/12/19 06:04:10;;;;;;;36.83;17.27;;;;;;;-3.10;96.63;97280.84;5065063;28;20507;-63
2021/12/19 06:06:37;;;;;;;38.70;15.07;;;;;;;-2.66;95.66;97299.88;5063110;28;20048;-63
2021/12/19 06:09:05;;;;;;;29.60;12.20;;;;;;;-2.95;95.85;97239.31;5062932;28;20060;-63
2021/12/19 06:11:33;;;;;;;24.27;12.77;;;;;;;-2.58;96.03;97279.47;5065076;28;20044;-63
2021/12/19 06:14:00;;;;;;;22.23;10.30;;;;;;;-3.20;95.38;97174.44;5065038;28;20060;-63
2021/12/19 06:16:29;;;;;;;20.90;9.30;;;;;;;-2.46;94.96;97283.47;5064708;28;20044;-63
2021/12/19 06:18:56;;;;;;;23.80;10.48;;;;;;;-2.50;94.88;97270.75;5064512;28;20575;-63
2021/12/19 06:21:23;;;;;;;22.92;8.07;;;;;;;-2.42;94.28;97270.94;5064397;28;20053;-63
2021/12/19 06:23:50;;;;;;;14.57;7.38;;;;;;;-3.77;91.32;97042.41;5064474;28;20057;-63
2021/12/19 06:26:17;;;;;;;13.90;6.55;;;;;;;-2.41;92.03;97267.16;5062867;28;20511;-63
2021/12/19 06:28:43;;;;;;;17.33;6.60;;;;;;;-2.46;92.49;97261.78;5062481;28;20047;-66
2021/12/19 06:31:10;;;;;;;26.88;11.60;;;;;;;-2.45;92.79;97251.75;5064113;28;20044;-66
2021/12/19 06:33:37;;;;;;;28.00;11.13;;;;;;;-2.45;93.58;97257.16;5064601;28;20059;-66
2021/12/19 06:36:05;;;;;;;36.33;13.60;;;;;;;-2.32;93.67;97259.22;5063915;28;20075;-66
2021/12/19 06:38:31;;;;;;;21.83;10.02;;;;;;;-2.11;92.13;97264.22;5064226;28;20052;-64
2021/12/19 06:40:58;;;;;;;44.78;17.30;;;;;;;-2.17;90.41;97238.22;5064435;28;20057;-63
2021/12/19 06:43:26;;;;;;;45.78;16.58;;;;;;;-2.56;91.03;97147.97;5062045;28;20052;-66
2021/12/19 06:45:55;;;;;;;36.03;13.65;;;;;;;-1.74;90.33;97264.41;5063864;28;20052;-64
2021/12/19 06:48:24;;;;;;;34.70;14.90;;;;;;;-1.76;90.25;97242.19;5062468;28;20057;-65
2021/12/19 06:50:52;;;;;;;35.97;17.10;;;;;;;-1.50;89.42;97280.72;5062617;28;20061;-64
2021/12/19 06:53:19;;;;;;;39.78;18.83;;;;;;;-1.27;89.41;97268.25;5064549;28;20059;-63
2021/12/19 06:55:46;;;;;;;25.80;12.38;;;;;;;-1.15;89.01;97265.91;5062653;28;20056;-65
2021/12/19 06:58:12;;;;;;;27.00;12.32;;;;;;;-1.35;86.72;97222.69;5063424;28;20051;-66
2021/12/19 07:00:39;;;;;;;18.90;10.25;;;;;;;-1.96;86.77;97087.66;5063694;28;20062;-65
2021/12/19 07:03:06;;;;;;;34.20;15.73;;;;;;;-0.84;86.36;97234.56;5063911;28;20056;-65
2021/12/19 07:05:33;;;;;;;43.42;19.67;;;;;;;-0.54;85.70;97261.31;5063597;28;20048;-64
2021/12/19 07:08:00;;;;;;;48.08;22.60;;;;;;;-2.77;85.41;96874.72;5063393;28;20064;-63
2021/12/19 07:10:26;;;;;;;66.32;28.77;;;;;;;-0.31;84.50;97263.13;5064051;28;20055;-65
2021/12/19 07:12:53;;;;;;;72.88;29.92;;;;;;;-0.16;83.97;97257.47;5064532;28;20053;-63
2021/12/19 07:15:24;;;;;;;86.35;36.05;;;;;;;-0.03;82.76;97249.34;5063714;28;20048;-63
2021/12/19 07:17:52;;;;;;;89.43;36.55;;;;;;;0.18;82.83;97252.53;5063349;28;20048;-66
2021/12/19 07:20:19;;;;;;;88.40;38.08;;;;;;;0.28;80.41;97251.53;5061603;28;20048;-63
2021/12/19 07:22:45;;;;;;;80.43;34.00;;;;;;;0.20;79.53;97255.78;5062944;28;20059;-66
2021/12/19 07:25:12;;;;;;;56.35;25.95;;;;;;;0.44;79.56;97250.16;5063423;28;20064;-63
2021/12/19 07:27:39;;;;;;;42.03;17.42;;;;;;;0.38;79.60;97246.72;5063727;28;20048;-66
2021/12/19 07:30:06;;;;;;;26.95;10.23;;;;;;;0.29;79.71;97242.25;5063644;28;20052;-65
2021/12/19 07:32:34;;;;;;;16.05;6.47;;;;;;;0.34;79.55;97240.25;5062046;28;20048;-65
2021/12/19 07:35:20;;;;;;;14.60;6.88;;;;;;;0.07;79.44;97221.13;5064012;28;20083;-65
2021/12/19 07:37:49;;;;;;;22.40;8.25;;;;;;;0.57;79.08;97239.28;5062202;28;20063;-64
2021/12/19 07:40:17;;;;;;;19.80;7.85;;;;;;;0.86;79.10;97226.16;5063375;28;20070;-64
2021/12/19 07:42:45;;;;;;;28.92;11.48;;;;;;;0.71;78.10;97218.28;5062912;28;20135;-65
2021/12/19 07:45:14;;;;;;;31.02;13.35;;;;;;;1.28;77.11;97223.06;5063558;28;20064;-67
2021/12/19 07:47:43;;;;;;;28.92;13.50;;;;;;;1.44;76.75;97226.25;5061849;28;20415;-67
2021/12/19 07:50:11;;;;;;;35.55;14.15;;;;;;;1.66;77.16;97222.78;5061877;28;20105;-64
2021/12/19 07:52:38;;;;;;;49.38;19.55;;;;;;;1.85;77.28;97220.69;5061982;28;20075;-68
2021/12/19 07:55:05;;;;;;;52.50;24.95;;;;;;;1.98;76.66;97217.06;5063165;28;20043;-67
2021/12/19 07:57:32;;;;;;;48.22;23.90;;;;;;;1.83;76.41;97223.72;5063590;28;20503;-64
2021/12/19 07:59:59;;;;;;;67.32;29.25;;;;;;;1.83;78.16;97217.44;5063329;28;20055;-67
2021/12/19 08:02:27;;;;;;;43.63;22.15;;;;;;;1.69;77.96;97175.75;5063220;28;20056;-66
2021/12/19 08:04:54;;;;;;;38.42;17.58;;;;;;;1.38;77.37;97070.03;5061799;28;20055;-65
2021/12/19 08:07:23;;;;;;;29.02;13.70;;;;;;;2.34;75.99;97201.38;5063189;28;20066;-65
2021/12/19 08:12:36;;;;;;;18.48;8.93;;;;;;;2.61;75.73;97173.81;5063355;28;20165;-65
2021/12/19 08:15:08;;;;;;;27.65;13.13;;;;;;;2.13;74.60;97112.88;5061953;28;20087;-66
2021/12/19 08:17:35;;;;;;;16.75;9.50;;;;;;;2.89;74.37;97199.84;5062607;28;20060;-65
2021/12/19 08:20:05;;;;;;;16.77;8.25;;;;;;;2.87;73.32;97177.47;5061261;28;20515;-66
2021/12/19 08:22:32;;;;;;;24.10;11.65;;;;;;;2.55;74.57;97096.63;5061430;28;20673;-65
2021/12/19 08:24:59;;;;;;;15.75;7.53;;;;;;;3.09;73.21;97158.19;5062771;28;20101;-66
2021/12/19 08:27:26;;;;;;;17.05;7.65;;;;;;;3.34;71.64;97187.53;5062910;28;20056;-65
2021/12/19 08:29:54;;;;;;;20.58;8.82;;;;;;;3.34;71.67;97171.09;5063712;28;20060;-66
2021/12/19 08:32:25;;;;;;;33.50;13.32;;;;;;;3.35;71.42;97177.41;5064838;28;20052;-65
2021/12/19 08:34:52;;;;;;;34.50;13.85;;;;;;;2.63;71.66;97051.28;5066143;28;20719;-65
2021/12/19 08:37:19;;;;;;;25.65;11.32;;;;;;;2.92;71.79;97125.34;5065234;28;20497;-66
2021/12/19 08:39:46;;;;;;;17.67;8.13;;;;;;;3.20;71.97;97121.19;5066563;28;20048;-65
2021/12/19 08:42:14;;;;;;;7.82;4.40;;;;;;;3.08;71.20;97107.34;5065025;28;20052;-65
2021/12/19 08:44:41;;;;;;;10.93;3.70;;;;;;;2.67;71.02;97024.94;5064679;28;20438;-66
2021/12/19 08:47:08;;;;;;;5.45;3.30;;;;;;;2.37;70.76;97003.97;5066082;28;20052;-66
2021/12/19 08:49:35;;;;;;;8.80;3.88;;;;;;;3.31;71.85;97138.91;5064892;28;20049;-65
2021/12/19 08:52:03;;;;;;;9.25;3.75;;;;;;;3.44;70.96;97146.16;5064643;28;20063;-65
2021/12/19 08:54:30;;;;;;;9.38;3.70;;;;;;;2.95;71.83;97089.16;5066590;28;20600;-67
2021/12/19 08:56:57;;;;;;;13.20;3.83;;;;;;;2.55;72.59;97030.19;5066657;28;20070;-70
2021/12/19 08:59:26;;;;;;;8.05;4.32;;;;;;;3.39;72.31;97132.63;5064706;28;20503;-69
2021/12/19 09:01:54;;;;;;;9.43;3.83;;;;;;;3.37;71.58;97137.63;5065683;28;20056;-69
2021/12/19 09:04:21;;;;;;;7.20;3.83;;;;;;;3.38;72.02;97122.81;5066241;28;20056;-68
2021/12/19 09:06:48;;;;;;;10.13;5.13;;;;;;;2.78;71.46;97023.50;5066143;28;20150;-69
2021/12/19 09:09:15;;;;;;;7.88;3.83;;;;;;;3.39;71.29;97108.00;5065837;28;20061;-69
2021/12/19 09:11:42;;;;;;;10.70;4.55;;;;;;;3.50;71.61;97103.81;5066301;28;20079;-66
2021/12/19 09:14:09;;;;;;;10.60;4.85;;;;;;;3.48;71.71;97106.03;5066329;28;20507;-65
2021/12/19 09:16:35;;;;;;;13.32;5.93;;;;;;;3.51;71.65;97099.91;5065681;28;20056;-65
2021/12/19 09:19:12;;;;;;;9.05;5.03;;;;;;;3.69;72.10;97090.56;5065751;28;20045;-68
2021/12/19 09:21:39;;;;;;;11.13;4.70;;;;;;;3.89;71.19;97087.13;5065355;28;20059;-65
2021/12/19 09:24:06;;;;;;;12.23;4.93;;;;;;;3.69;69.46;97041.25;5065349;28;20052;-68
2021/12/19 09:26:33;;;;;;;11.65;4.40;;;;;;;4.16;68.41;97073.03;5064125;28;20420;-65
2021/12/19 09:29:00;;;;;;;10.60;4.88;;;;;;;4.26;69.00;97061.69;5065591;28;20107;-65
2021/12/19 09:31:29;;;;;;;10.45;4.35;;;;;;;4.35;67.84;97059.72;5065502;28;20075;-64
2021/12/19 09:33:56;;;;;;;13.75;5.55;;;;;;;4.37;68.69;97029.22;5063854;28;20796;-65
2021/12/19 09:36:25;;;;;;;7.63;3.70;;;;;;;4.72;68.26;97057.25;5065456;28;20529;-65
2021/12/19 09:38:52;;;;;;;8.48;2.78;;;;;;;4.79;65.56;97052.06;5065517;28;20044;-67
2021/12/19 09:41:28;;;;;;;10.05;3.47;;;;;;;4.83;65.09;97063.97;5064689;28;20044;-65
2021/12/19 09:44:02;;;;;;;9.13;4.05;;;;;;;4.80;64.93;97043.50;5065539;28;20052;-67
2021/12/19 09:46:35;;;;;;;5.07;2.53;;;;;;;4.21;66.84;97044.63;5076300;28;20133;-66
2021/12/19 09:49:05;;;;;;;6.43;2.65;;;;;;;4.23;64.45;96968.34;5064940;28;20060;-64
2021/12/19 09:51:32;;;;;;;4.63;2.63;;;;;;;4.77;61.85;97043.34;5064085;28;20048;-65
2021/12/19 09:53:59;;;;;;;5.88;2.42;;;;;;;4.88;59.36;97017.94;5065667;28;20045;-69
2021/12/19 09:56:27;;;;;;;5.25;2.40;;;;;;;5.05;60.90;97028.78;5063769;28;20048;-67
2021/12/19 09:58:53;;;;;;;12.50;4.47;;;;;;;4.96;59.33;97002.53;5063438;28;20045;-66
2021/12/19 10:01:20;;;;;;;5.05;2.72;;;;;;;4.63;56.76;96920.97;5065185;28;20298;-67
2021/12/19 10:03:47;;;;;;;9.25;2.88;;;;;;;4.71;57.28;96965.91;5064996;28;20063;-66
2021/12/19 10:06:29;;;;;;;6.47;2.85;;;;;;;4.84;59.28;96961.31;5064477;28;20059;-69
2021/12/19 10:09:15;;;;;;;5.80;2.33;;;;;;;5.29;57.99;97009.69;5064393;28;20527;-68
2021/12/19 10:14:30;;;;;;;3.92;2.65;;;;;;;5.54;59.93;96992.13;5064284;28;20084;-66
2021/12/19 10:16:58;;;;;;;3.70;2.22;;;;;;;5.61;60.21;97002.56;5063070;28;20048;-67
2021/12/19 10:19:42;;;;;;;4.30;2.00;;;;;;;5.49;58.11;96928.34;5064222;28;20064;-67
2021/12/19 10:22:49;;;;;;;6.13;2.78;;;;;;;5.35;57.91;96953.41;5064114;28;20446;-66
2021/12/19 10:25:22;;;;;;;4.75;1.52;;;;;;;5.31;58.70;96957.16;5062353;28;20515;-65
2021/12/19 10:27:49;;;;;;;;;;;;;;;5.68;59.35;96975.34;5065456;28;20516;-65
2021/12/19 10:30:46;;;;;;;6.25;2.55;;;;;;;5.61;59.61;96977.84;5065021;28;19947;-68
2021/12/19 10:33:18;;;;;;;7.30;3.35;;;;;;;5.67;60.50;96974.53;5059803;28;20601;-65
2021/12/19 10:35:51;;;;;;;8.40;3.10;;;;;;;5.67;60.10;96958.06;5064363;28;20048;-65
2021/12/19 10:38:27;;;;;;;6.78;3.72;;;;;;;5.65;60.03;96948.53;5062654;28;20044;-66
2021/12/19 10:41:00;;;;;;;8.48;2.88;;;;;;;5.36;58.87;96924.00;5063795;28;20044;-65
2021/12/19 10:43:31;;;;;;;6.32;3.45;;;;;;;5.57;58.57;96965.91;5064087;28;20135;-66
2021/12/19 10:46:01;;;;;;;6.13;3.00;;;;;;;5.74;58.59;96951.97;5064074;28;20056;-68
2021/12/19 10:48:31;;;;;;;4.60;2.33;;;;;;;5.42;60.05;96955.59;5062470;28;20146;-66
2021/12/19 10:51:03;;;;;;;6.43;3.08;;;;;;;5.72;60.78;96937.81;5064115;28;20480;-66
2021/12/19 10:53:41;;;;;;;4.60;2.47;;;;;;;5.91;59.27;96927.09;5061697;28;20504;-66
2021/12/19 10:56:17;;;;;;;9.32;3.90;;;;;;;5.53;59.34;96874.34;5063686;28;20060;-67
2021/12/19 10:58:51;;;;;;;6.85;3.33;;;;;;;5.88;58.99;96916.78;5063809;28;20056;-66
2021/12/19 11:01:25;;;;;;;4.75;2.15;;;;;;;5.96;58.01;96921.34;5062750;28;20063;-65
2021/12/19 11:04:13;;;;;;;10.23;5.03;;;;;;;6.14;57.95;96906.22;5063607;28;20052;-65
2021/12/19 11:06:42;;;;;;;8.35;3.33;;;;;;;6.24;58.34;96900.25;5063888;28;20055;-67
2021/12/19 11:09:11;;;;;;;5.78;2.53;;;;;;;6.35;55.48;96890.38;5063535;28;20144;-67
2021/12/19 11:11:41;;;;;;;3.67;1.83;;;;;;;6.45;54.42;96887.13;5063430;28;20049;-68
2021/12/19 11:14:15;;;;;;;4.63;2.30;;;;;;;6.42;55.14;96874.09;5064012;28;20083;-68
2021/12/19 11:16:42;;;;;;;3.97;1.70;;;;;;;6.38;53.31;96866.88;5063096;28;20057;-66
2021/12/19 11:19:10;;;;;;;9.07;4.28;;;;;;;6.43;52.72;96859.19;5061870;28;20049;-69
2021/12/19 11:21:37;;;;;;;6.40;2.00;;;;;;;4.32;50.27;96557.88;5061955;28;20503;-66
2021/12/19 11:24:08;;;;;;;12.32;4.10;;;;;;;6.30;49.84;96854.06;5063990;28;20053;-69
2021/12/19 11:26:37;;;;;;;46.35;13.48;;;;;;;6.08;51.59;96830.63;5063939;28;20055;-68
2021/12/19 11:29:05;;;;;;;7.05;2.95;;;;;;;6.00;50.34;96850.78;5064392;28;20085;-67
2021/12/19 11:31:33;;;;;;;5.40;1.88;;;;;;;5.49;50.86;96785.53;5062394;28;20044;-67
2021/12/19 11:34:03;;;;;;;6.30;2.90;;;;;;;5.64;52.87;96823.31;5063713;28;20426;-65
2021/12/19 11:36:35;;;;;;;5.15;2.00;;;;;;;5.59;53.67;96824.34;5063244;28;20498;-68
2021/12/19 11:39:04;;;;;;;7.38;2.78;;;;;;;5.20;54.33;96767.31;5062028;28;20052;-65
2021/12/19 11:41:31;;;;;;;6.20;2.92;;;;;;;5.48;54.36;96822.38;5063564;28;20060;-65
2021/12/19 11:44:02;;;;;;;7.18;4.60;;;;;;;5.57;55.09;96814.81;5061873;28;20048;-71
2021/12/19 11:46:52;;;;;;;8.27;4.20;;;;;;;5.56;55.24;96802.25;5061930;28;20064;-69
2021/12/19 11:49:24;;;;;;;5.38;2.55;;;;;;;5.62;55.06;96795.38;5063776;28;20052;-69
2021/12/19 11:52:25;;;;;;;4.28;2.33;;;;;;;5.69;55.07;96812.09;5063207;28;20076;-66
2021/12/19 11:55:13;;;;;;;5.75;2.13;;;;;;;5.73;54.42;96807.50;5058781;28;20136;-69
2021/12/19 11:58:03;;;;;;;7.80;3.15;;;;;;;5.79;55.02;96806.91;5063299;28;20138;-68
2021/12/19 12:00:33;;;;;;;5.20;2.45;;;;;;;5.74;55.17;96798.09;5062878;28;20056;-68
2021/12/19 12:03:11;;;;;;;5.47;2.40;;;;;;;5.84;55.62;96805.91;5063173;28;20272;-65
2021/12/19 12:05:49;;;;;;;5.15;3.30;;;;;;;5.91;55.16;96803.41;5065795;28;20070;-66
2021/12/19 12:08:21;;;;;;;6.90;1.98;;;;;;;5.96;54.62;96805.88;5066953;28;20446;-68
2021/12/19 12:10:48;;;;;;;8.27;3.00;;;;;;;6.03;54.95;96795.94;5067090;28;20570;-69
2021/12/19 12:13:24;;;;;;;8.50;3.28;;;;;;;6.04;54.66;96782.97;5067268;28;20466;-67
2021/12/19 12:15:57;;;;;;;4.07;1.95;;;;;;;5.91;53.63;96773.16;5066831;28;20056;-66
2021/12/19 12:18:44;;;;;;;4.45;2.40;;;;;;;6.05;55.33;96777.09;5066840;28;20072;-66
2021/12/19 12:23:59;;;;;;;11.43;4.35;;;;;;;5.94;54.82;96761.47;5066580;28;20373;-69
2021/12/19 12:26:46;;;;;;;7.85;3.65;;;;;;;5.90;54.75;96757.78;5066847;28;20044;-66
2021/12/19 12:29:15;;;;;;;3.63;2.03;;;;;;;5.79;54.76;96756.66;5065403;28;20059;-69
2021/12/19 12:31:44;;;;;;;3.08;1.98;;;;;;;5.77;55.46;96758.97;5066948;28;20056;-68
2021/12/19 12:34:13;;;;;;;4.57;1.95;;;;;;;5.70;54.09;96747.75;5065114;28;20052;-70
2021/12/19 12:36:41;;;;;;;6.32;3.47;;;;;;;5.62;54.39;96745.91;5066753;28;20127;-68
2021/12/19 12:39:18;;;;;;;8.65;3.85;;;;;;;5.11;55.23;96680.72;5065112;28;20056;-68
2021/12/19 12:44:23;;;;;;;7.45;3.70;;;;;;;5.40;56.33;96722.50;5066630;28;20059;-69
2021/12/19 12:46:50;;;;;;;9.32;3.17;;;;;;;5.16;56.46;96680.50;5066227;28;20067;-65
2021/12/19 12:49:26;;;;;;;5.47;2.70;;;;;;;5.31;56.35;96704.53;5064844;28;20060;-66
2021/12/19 12:52:01;;;;;;;5.78;2.90;;;;;;;4.95;57.59;96641.44;5066165;28;20053;-64
2021/12/19 12:54:36;;;;;;;6.22;2.85;;;;;;;5.31;56.86;96708.06;5066268;28;20052;-67
2021/12/19 12:57:13;;;;;;;11.82;5.45;;;;;;;5.34;57.77;96701.09;5066295;28;20438;-67